sensor_id;sensor_type;location;lat;lon;timestamp;P1;durP1;ratioP1;P2;durP2;ratioP2
65971;SDS011;52726;48.852;9.152;2023-04-25T00:00:15;1.50;;;1.40;;
65971;SDS011;52726;48.852;9.152;2023-04-25T00:02:41;1.45;;;1.20;;
65971;SDS011;52726;48.852;9.152;2023-04-25T00:05:07;1.60;;;1.27;;
65971;SDS011;52726;48.852;9.152;2023-04-25T00:07:33;1.48;;;1.38;;
65971;SDS011;52726;48.852;9.152;2023-04-25T00:09:59;1.20;;;1.10;;
65971;SDS011;52726;48.852;9.152;2023-04-25T00:12:25;2.05;;;1.63;;
65971;SDS011;52726;48.852;9.152;2023-04-25T00:14:53;1.77;;;1.55;;
65971;SDS011;52726;48.852;9.152;2023-04-25T00:17:21;2.75;;;1.63;;
65971;SDS011;52726;48.852;9.152;2023-04-25T00:19:49;1.52;;;1.40;;
65971;SDS011;52726;48.852;9.152;2023-04-25T00:22:15;1.20;;;1.10;;
65971;SDS011;52726;48.852;9.152;2023-04-25T00:24:40;1.52;;;1.42;;
65971;SDS011;52726;48.852;9.152;2023-04-25T00:27:06;1.60;;;1.50;;
65971;SDS011;52726;48.852;9.152;2023-04-25T00:29:31;1.40;;;1.30;;
65971;SDS011;52726;48.852;9.152;2023-04-25T00:31:56;1.85;;;1.38;;
65971;SDS011;52726;48.852;9.152;2023-04-25T00:34:22;1.60;;;1.50;;
65971;SDS011;52726;48.852;9.152;2023-04-25T00:36:47;1.50;;;1.40;;
65971;SDS011;52726;48.852;9.152;2023-04-25T00:39:12;1.17;;;1.13;;
65971;SDS011;52726;48.852;9.152;2023-04-25T00:41:38;2.05;;;1.60;;
65971;SDS011;52726;48.852;9.152;2023-04-25T00:44:03;1.58;;;1.40;;
65971;SDS011;52726;48.852;9.152;2023-04-25T00:46:29;1.10;;;1.10;;
65971;SDS011;52726;48.852;9.152;2023-04-25T00:48:56;2.75;;;1.23;;
65971;SDS011;52726;48.852;9.152;2023-04-25T00:51:21;1.35;;;1.20;;
65971;SDS011;52726;48.852;9.152;2023-04-25T00:53:47;2.47;;;1.40;;
65971;SDS011;52726;48.852;9.152;2023-04-25T00:56:14;1.85;;;1.30;;
65971;SDS011;52726;48.852;9.152;2023-04-25T00:58:41;1.50;;;1.40;;
65971;SDS011;52726;48.852;9.152;2023-04-25T01:01:07;2.95;;;1.30;;
65971;SDS011;52726;48.852;9.152;2023-04-25T01:03:33;2.30;;;1.33;;
65971;SDS011;52726;48.852;9.152;2023-04-25T01:06:01;1.98;;;1.30;;
65971;SDS011;52726;48.852;9.152;2023-04-25T01:08:27;1.73;;;1.30;;
65971;SDS011;52726;48.852;9.152;2023-04-25T01:10:53;2.33;;;1.70;;
65971;SDS011;52726;48.852;9.152;2023-04-25T01:13:18;2.60;;;1.45;;
65971;SDS011;52726;48.852;9.152;2023-04-25T01:15:44;1.45;;;1.35;;
65971;SDS011;52726;48.852;9.152;2023-04-25T01:18:09;2.13;;;1.58;;
65971;SDS011;52726;48.852;9.152;2023-04-25T01:20:35;1.30;;;1.25;;
65971;SDS011;52726;48.852;9.152;2023-04-25T01:23:03;1.70;;;1.40;;
65971;SDS011;52726;48.852;9.152;2023-04-25T01:25:30;2.63;;;1.70;;
65971;SDS011;52726;48.852;9.152;2023-04-25T01:27:56;2.17;;;1.50;;
65971;SDS011;52726;48.852;9.152;2023-04-25T01:30:23;1.65;;;1.55;;
65971;SDS011;52726;48.852;9.152;2023-04-25T01:32:50;4.07;;;1.67;;
65971;SDS011;52726;48.852;9.152;2023-04-25T01:35:16;2.53;;;1.90;;
65971;SDS011;52726;48.852;9.152;2023-04-25T01:37:42;3.55;;;1.80;;
65971;SDS011;52726;48.852;9.152;2023-04-25T01:40:11;2.00;;;1.73;;
65971;SDS011;52726;48.852;9.152;2023-04-25T01:42:38;2.95;;;1.60;;
65971;SDS011;52726;48.852;9.152;2023-04-25T01:45:07;1.77;;;1.60;;
65971;SDS011;52726;48.852;9.152;2023-04-25T01:47:33;2.45;;;1.80;;
65971;SDS011;52726;48.852;9.152;2023-04-25T01:50:00;1.83;;;1.70;;
65971;SDS011;52726;48.852;9.152;2023-04-25T01:52:26;1.88;;;1.63;;
65971;SDS011;52726;48.852;9.152;2023-04-25T01:54:52;2.85;;;1.63;;
65971;SDS011;52726;48.852;9.152;2023-04-25T01:57:18;3.33;;;2.00;;
65971;SDS011;52726;48.852;9.152;2023-04-25T01:59:43;2.50;;;1.50;;
65971;SDS011;52726;48.852;9.152;2023-04-25T02:02:09;1.70;;;1.60;;
65971;SDS011;52726;48.852;9.152;2023-04-25T02:04:34;1.63;;;1.48;;
65971;SDS011;52726;48.852;9.152;2023-04-25T02:07:00;3.20;;;1.60;;
65971;SDS011;52726;48.852;9.152;2023-04-25T02:09:25;7.32;;;1.98;;
65971;SDS011;52726;48.852;9.152;2023-04-25T02:11:50;1.70;;;1.60;;
65971;SDS011;52726;48.852;9.152;2023-04-25T02:14:16;2.28;;;2.05;;
65971;SDS011;52726;48.852;9.152;2023-04-25T02:16:41;3.67;;;2.13;;
65971;SDS011;52726;48.852;9.152;2023-04-25T02:19:09;5.25;;;1.83;;
65971;SDS011;52726;48.852;9.152;2023-04-25T02:21:35;3.95;;;1.73;;
65971;SDS011;52726;48.852;9.152;2023-04-25T02:24:00;1.90;;;1.67;;
65971;SDS011;52726;48.852;9.152;2023-04-25T02:26:26;2.50;;;1.90;;
65971;SDS011;52726;48.852;9.152;2023-04-25T02:28:51;1.98;;;1.77;;
65971;SDS011;52726;48.852;9.152;2023-04-25T02:31:17;1.90;;;1.73;;
65971;SDS011;52726;48.852;9.152;2023-04-25T02:33:42;2.05;;;1.75;;
65971;SDS011;52726;48.852;9.152;2023-04-25T02:36:08;5.25;;;1.70;;
65971;SDS011;52726;48.852;9.152;2023-04-25T02:38:33;2.13;;;1.92;;
65971;SDS011;52726;48.852;9.152;2023-04-25T02:40:59;5.97;;;1.92;;
65971;SDS011;52726;48.852;9.152;2023-04-25T02:43:24;6.10;;;2.20;;
65971;SDS011;52726;48.852;9.152;2023-04-25T02:45:50;1.67;;;1.58;;
65971;SDS011;52726;48.852;9.152;2023-04-25T02:48:15;2.17;;;1.65;;
65971;SDS011;52726;48.852;9.152;2023-04-25T02:50:40;1.83;;;1.63;;
65971;SDS011;52726;48.852;9.152;2023-04-25T02:53:06;2.67;;;1.92;;
65971;SDS011;52726;48.852;9.152;2023-04-25T02:55:31;2.05;;;1.70;;
65971;SDS011;52726;48.852;9.152;2023-04-25T02:57:56;4.03;;;1.63;;
65971;SDS011;52726;48.852;9.152;2023-04-25T03:00:22;1.80;;;1.70;;
65971;SDS011;52726;48.852;9.152;2023-04-25T03:02:47;2.63;;;1.77;;
65971;SDS011;52726;48.852;9.152;2023-04-25T03:05:13;2.03;;;1.85;;
65971;SDS011;52726;48.852;9.152;2023-04-25T03:07:38;5.18;;;2.17;;
65971;SDS011;52726;48.852;9.152;2023-04-25T03:10:05;6.03;;;1.95;;
65971;SDS011;52726;48.852;9.152;2023-04-25T03:12:31;2.03;;;1.83;;
65971;SDS011;52726;48.852;9.152;2023-04-25T03:14:57;1.90;;;1.70;;
65971;SDS011;52726;48.852;9.152;2023-04-25T03:17:22;2.47;;;1.60;;
65971;SDS011;52726;48.852;9.152;2023-04-25T03:19:47;3.95;;;1.67;;
65971;SDS011;52726;48.852;9.152;2023-04-25T03:22:13;2.00;;;1.63;;
65971;SDS011;52726;48.852;9.152;2023-04-25T03:24:38;2.13;;;1.70;;
65971;SDS011;52726;48.852;9.152;2023-04-25T03:27:03;2.55;;;1.80;;
65971;SDS011;52726;48.852;9.152;2023-04-25T03:29:29;1.60;;;1.50;;
65971;SDS011;52726;48.852;9.152;2023-04-25T03:31:55;2.60;;;1.95;;
65971;SDS011;52726;48.852;9.152;2023-04-25T03:34:20;2.25;;;2.05;;
65971;SDS011;52726;48.852;9.152;2023-04-25T03:36:49;2.42;;;2.13;;
65971;SDS011;52726;48.852;9.152;2023-04-25T03:39:14;2.10;;;1.70;;
65971;SDS011;52726;48.852;9.152;2023-04-25T03:41:40;4.90;;;2.00;;
65971;SDS011;52726;48.852;9.152;2023-04-25T03:44:06;3.88;;;2.10;;
65971;SDS011;52726;48.852;9.152;2023-04-25T03:46:32;4.40;;;2.42;;
65971;SDS011;52726;48.852;9.152;2023-04-25T03:48:57;3.03;;;2.05;;
65971;SDS011;52726;48.852;9.152;2023-04-25T03:51:22;3.95;;;2.00;;
65971;SDS011;52726;48.852;9.152;2023-04-25T03:53:48;2.65;;;2.25;;
65971;SDS011;52726;48.852;9.152;2023-04-25T03:56:13;3.42;;;2.58;;
65971;SDS011;52726;48.852;9.152;2023-04-25T03:58:38;2.47;;;2.10;;
65971;SDS011;52726;48.852;9.152;2023-04-25T04:01:04;5.20;;;2.40;;
65971;SDS011;52726;48.852;9.152;2023-04-25T04:03:32;3.30;;;2.03;;
65971;SDS011;52726;48.852;9.152;2023-04-25T04:05:59;4.15;;;2.22;;
65971;SDS011;52726;48.852;9.152;2023-04-25T04:08:24;2.58;;;2.35;;
65971;SDS011;52726;48.852;9.152;2023-04-25T04:10:50;2.25;;;2.00;;
65971;SDS011;52726;48.852;9.152;2023-04-25T04:13:15;3.20;;;2.60;;
65971;SDS011;52726;48.852;9.152;2023-04-25T04:15:40;4.43;;;2.58;;
65971;SDS011;52726;48.852;9.152;2023-04-25T04:18:06;4.07;;;2.38;;
65971;SDS011;52726;48.852;9.152;2023-04-25T04:20:31;3.03;;;2.13;;
65971;SDS011;52726;48.852;9.152;2023-04-25T04:22:56;6.75;;;2.20;;
65971;SDS011;52726;48.852;9.152;2023-04-25T04:25:22;2.72;;;2.28;;
65971;SDS011;52726;48.852;9.152;2023-04-25T04:27:47;2.88;;;2.50;;
65971;SDS011;52726;48.852;9.152;2023-04-25T04:30:12;7.43;;;2.55;;
65971;SDS011;52726;48.852;9.152;2023-04-25T04:32:38;3.20;;;2.33;;
65971;SDS011;52726;48.852;9.152;2023-04-25T04:35:03;6.50;;;2.88;;
65971;SDS011;52726;48.852;9.152;2023-04-25T04:37:29;2.25;;;2.05;;
65971;SDS011;52726;48.852;9.152;2023-04-25T04:39:55;2.38;;;2.15;;
65971;SDS011;52726;48.852;9.152;2023-04-25T04:42:21;2.85;;;2.08;;
65971;SDS011;52726;48.852;9.152;2023-04-25T04:44:46;3.75;;;2.55;;
65971;SDS011;52726;48.852;9.152;2023-04-25T04:47:11;5.40;;;2.97;;
65971;SDS011;52726;48.852;9.152;2023-04-25T04:49:37;3.78;;;2.58;;
65971;SDS011;52726;48.852;9.152;2023-04-25T04:52:09;7.10;;;2.60;;
65971;SDS011;52726;48.852;9.152;2023-04-25T04:54:35;6.10;;;2.47;;
65971;SDS011;52726;48.852;9.152;2023-04-25T04:57:00;4.30;;;2.80;;
65971;SDS011;52726;48.852;9.152;2023-04-25T04:59:26;4.65;;;2.47;;
65971;SDS011;52726;48.852;9.152;2023-04-25T05:01:52;3.38;;;2.50;;
65971;SDS011;52726;48.852;9.152;2023-04-25T05:04:17;3.70;;;2.40;;
65971;SDS011;52726;48.852;9.152;2023-04-25T05:06:43;3.38;;;2.65;;
65971;SDS011;52726;48.852;9.152;2023-04-25T05:09:09;3.15;;;2.60;;
65971;SDS011;52726;48.852;9.152;2023-04-25T05:11:34;3.80;;;2.65;;
65971;SDS011;52726;48.852;9.152;2023-04-25T05:14:00;3.72;;;2.50;;
65971;SDS011;52726;48.852;9.152;2023-04-25T05:16:25;5.47;;;2.85;;
65971;SDS011;52726;48.852;9.152;2023-04-25T05:18:50;5.10;;;2.38;;
65971;SDS011;52726;48.852;9.152;2023-04-25T05:21:16;6.57;;;2.67;;
65971;SDS011;52726;48.852;9.152;2023-04-25T05:23:41;4.85;;;2.78;;
65971;SDS011;52726;48.852;9.152;2023-04-25T05:26:06;4.80;;;2.63;;
65971;SDS011;52726;48.852;9.152;2023-04-25T05:28:38;3.17;;;2.50;;
65971;SDS011;52726;48.852;9.152;2023-04-25T05:31:04;4.18;;;2.30;;
65971;SDS011;52726;48.852;9.152;2023-04-25T05:33:29;4.10;;;2.53;;
65971;SDS011;52726;48.852;9.152;2023-04-25T05:35:55;3.08;;;2.40;;
65971;SDS011;52726;48.852;9.152;2023-04-25T05:38:20;5.18;;;2.67;;
65971;SDS011;52726;48.852;9.152;2023-04-25T05:40:45;3.22;;;2.58;;
65971;SDS011;52726;48.852;9.152;2023-04-25T05:43:11;3.78;;;2.60;;
65971;SDS011;52726;48.852;9.152;2023-04-25T05:45:36;3.88;;;2.67;;
65971;SDS011;52726;48.852;9.152;2023-04-25T05:48:02;3.20;;;2.70;;
65971;SDS011;52726;48.852;9.152;2023-04-25T05:50:27;2.28;;;2.08;;
65971;SDS011;52726;48.852;9.152;2023-04-25T05:52:53;3.97;;;2.75;;
65971;SDS011;52726;48.852;9.152;2023-04-25T05:55:18;4.25;;;2.95;;
65971;SDS011;52726;48.852;9.152;2023-04-25T05:57:45;5.45;;;2.67;;
65971;SDS011;52726;48.852;9.152;2023-04-25T06:00:11;4.75;;;2.67;;
65971;SDS011;52726;48.852;9.152;2023-04-25T06:02:39;5.55;;;2.63;;
65971;SDS011;52726;48.852;9.152;2023-04-25T06:05:05;4.85;;;2.50;;
65971;SDS011;52726;48.852;9.152;2023-04-25T06:07:30;5.68;;;2.40;;
65971;SDS011;52726;48.852;9.152;2023-04-25T06:09:56;5.07;;;2.40;;
65971;SDS011;52726;48.852;9.152;2023-04-25T06:12:21;4.65;;;2.20;;
65971;SDS011;52726;48.852;9.152;2023-04-25T06:14:47;4.63;;;1.95;;
65971;SDS011;52726;48.852;9.152;2023-04-25T06:17:12;6.70;;;2.22;;
65971;SDS011;52726;48.852;9.152;2023-04-25T06:19:38;2.70;;;2.25;;
65971;SDS011;52726;48.852;9.152;2023-04-25T06:22:03;2.50;;;2.30;;
65971;SDS011;52726;48.852;9.152;2023-04-25T06:24:28;3.60;;;2.45;;
65971;SDS011;52726;48.852;9.152;2023-04-25T06:26:54;2.50;;;2.03;;
65971;SDS011;52726;48.852;9.152;2023-04-25T06:29:19;2.78;;;2.20;;
65971;SDS011;52726;48.852;9.152;2023-04-25T06:31:50;3.92;;;2.60;;
65971;SDS011;52726;48.852;9.152;2023-04-25T06:34:16;2.42;;;2.13;;
65971;SDS011;52726;48.852;9.152;2023-04-25T06:36:42;2.78;;;2.33;;
65971;SDS011;52726;48.852;9.152;2023-04-25T06:39:09;2.78;;;2.17;;
65971;SDS011;52726;48.852;9.152;2023-04-25T06:41:34;2.50;;;2.25;;
65971;SDS011;52726;48.852;9.152;2023-04-25T06:44:00;3.85;;;2.72;;
65971;SDS011;52726;48.852;9.152;2023-04-25T06:46:25;2.70;;;2.40;;
65971;SDS011;52726;48.852;9.152;2023-04-25T06:48:50;3.80;;;2.70;;
65971;SDS011;52726;48.852;9.152;2023-04-25T06:51:16;3.85;;;2.70;;
65971;SDS011;52726;48.852;9.152;2023-04-25T06:53:41;5.80;;;2.72;;
65971;SDS011;52726;48.852;9.152;2023-04-25T06:56:06;3.65;;;2.35;;
65971;SDS011;52726;48.852;9.152;2023-04-25T06:58:32;2.97;;;2.63;;
65971;SDS011;52726;48.852;9.152;2023-04-25T07:00:57;3.20;;;2.15;;
65971;SDS011;52726;48.852;9.152;2023-04-25T07:03:23;3.78;;;2.65;;
65971;SDS011;52726;48.852;9.152;2023-04-25T07:05:49;3.72;;;2.65;;
65971;SDS011;52726;48.852;9.152;2023-04-25T07:08:15;3.42;;;2.35;;
65971;SDS011;52726;48.852;9.152;2023-04-25T07:10:40;4.88;;;3.22;;
65971;SDS011;52726;48.852;9.152;2023-04-25T07:13:06;3.58;;;2.47;;
65971;SDS011;52726;48.852;9.152;2023-04-25T07:15:31;5.20;;;2.55;;
65971;SDS011;52726;48.852;9.152;2023-04-25T07:17:56;3.60;;;2.67;;
65971;SDS011;52726;48.852;9.152;2023-04-25T07:20:21;3.60;;;2.72;;
65971;SDS011;52726;48.852;9.152;2023-04-25T07:22:47;3.80;;;2.60;;
65971;SDS011;52726;48.852;9.152;2023-04-25T07:25:12;7.03;;;2.25;;
65971;SDS011;52726;48.852;9.152;2023-04-25T07:27:37;4.80;;;2.88;;
65971;SDS011;52726;48.852;9.152;2023-04-25T07:30:04;5.03;;;2.75;;
65971;SDS011;52726;48.852;9.152;2023-04-25T07:32:30;5.43;;;2.80;;
65971;SDS011;52726;48.852;9.152;2023-04-25T07:34:55;3.80;;;2.63;;
65971;SDS011;52726;48.852;9.152;2023-04-25T07:37:21;2.97;;;2.53;;
65971;SDS011;52726;48.852;9.152;2023-04-25T07:39:46;3.28;;;2.67;;
65971;SDS011;52726;48.852;9.152;2023-04-25T07:42:12;4.32;;;2.80;;
65971;SDS011;52726;48.852;9.152;2023-04-25T07:44:37;3.22;;;2.50;;
65971;SDS011;52726;48.852;9.152;2023-04-25T07:47:05;5.25;;;2.67;;
65971;SDS011;52726;48.852;9.152;2023-04-25T07:49:34;3.50;;;2.92;;
65971;SDS011;52726;48.852;9.152;2023-04-25T07:52:00;4.55;;;2.58;;
65971;SDS011;52726;48.852;9.152;2023-04-25T07:54:27;4.13;;;3.03;;
65971;SDS011;52726;48.852;9.152;2023-04-25T07:56:52;3.10;;;2.30;;
65971;SDS011;52726;48.852;9.152;2023-04-25T07:59:17;3.58;;;2.72;;
65971;SDS011;52726;48.852;9.152;2023-04-25T08:01:43;4.00;;;2.65;;
65971;SDS011;52726;48.852;9.152;2023-04-25T08:04:08;2.63;;;2.35;;
65971;SDS011;52726;48.852;9.152;2023-04-25T08:06:33;3.78;;;2.55;;
65971;SDS011;52726;48.852;9.152;2023-04-25T08:08:59;4.22;;;2.65;;
65971;SDS011;52726;48.852;9.152;2023-04-25T08:11:25;3.10;;;2.42;;
65971;SDS011;52726;48.852;9.152;2023-04-25T08:13:50;5.45;;;2.85;;
65971;SDS011;52726;48.852;9.152;2023-04-25T08:16:16;4.95;;;2.97;;
65971;SDS011;52726;48.852;9.152;2023-04-25T08:18:41;3.72;;;2.55;;
65971;SDS011;52726;48.852;9.152;2023-04-25T08:21:07;4.32;;;2.88;;
65971;SDS011;52726;48.852;9.152;2023-04-25T08:23:33;4.72;;;2.92;;
65971;SDS011;52726;48.852;9.152;2023-04-25T08:25:59;3.17;;;2.55;;
65971;SDS011;52726;48.852;9.152;2023-04-25T08:28:24;3.78;;;2.60;;
65971;SDS011;52726;48.852;9.152;2023-04-25T08:30:50;3.92;;;3.03;;
65971;SDS011;52726;48.852;9.152;2023-04-25T08:33:15;3.65;;;2.47;;
65971;SDS011;52726;48.852;9.152;2023-04-25T08:35:40;4.35;;;2.63;;
65971;SDS011;52726;48.852;9.152;2023-04-25T08:38:06;4.10;;;2.60;;
65971;SDS011;52726;48.852;9.152;2023-04-25T08:40:31;3.05;;;2.13;;
65971;SDS011;52726;48.852;9.152;2023-04-25T08:43:02;3.55;;;2.60;;
65971;SDS011;52726;48.852;9.152;2023-04-25T08:45:28;3.00;;;2.40;;
65971;SDS011;52726;48.852;9.152;2023-04-25T08:47:57;4.15;;;2.60;;
65971;SDS011;52726;48.852;9.152;2023-04-25T08:50:23;4.45;;;2.63;;
65971;SDS011;52726;48.852;9.152;2023-04-25T08:52:51;3.67;;;2.42;;
65971;SDS011;52726;48.852;9.152;2023-04-25T08:55:18;4.43;;;2.72;;
65971;SDS011;52726;48.852;9.152;2023-04-25T08:57:45;3.65;;;2.55;;
65971;SDS011;52726;48.852;9.152;2023-04-25T09:00:11;3.35;;;2.65;;
65971;SDS011;52726;48.852;9.152;2023-04-25T09:02:41;3.50;;;2.25;;
65971;SDS011;52726;48.852;9.152;2023-04-25T09:05:07;3.80;;;2.63;;
65971;SDS011;52726;48.852;9.152;2023-04-25T09:07:34;3.25;;;2.60;;
65971;SDS011;52726;48.852;9.152;2023-04-25T09:10:00;3.58;;;2.63;;
65971;SDS011;52726;48.852;9.152;2023-04-25T09:12:28;4.15;;;3.10;;
65971;SDS011;52726;48.852;9.152;2023-04-25T09:17:31;5.63;;;3.17;;
65971;SDS011;52726;48.852;9.152;2023-04-25T09:20:07;3.58;;;2.88;;
65971;SDS011;52726;48.852;9.152;2023-04-25T09:22:34;7.00;;;3.95;;
65971;SDS011;52726;48.852;9.152;2023-04-25T09:25:02;7.03;;;3.80;;
65971;SDS011;52726;48.852;9.152;2023-04-25T09:27:52;7.95;;;4.00;;
65971;SDS011;52726;48.852;9.152;2023-04-25T09:30:18;6.57;;;3.97;;
65971;SDS011;52726;48.852;9.152;2023-04-25T09:32:54;5.53;;;4.05;;
65971;SDS011;52726;48.852;9.152;2023-04-25T09:35:25;4.43;;;3.58;;
65971;SDS011;52726;48.852;9.152;2023-04-25T09:37:51;5.78;;;4.07;;
65971;SDS011;52726;48.852;9.152;2023-04-25T09:40:17;4.45;;;3.50;;
65971;SDS011;52726;48.852;9.152;2023-04-25T09:42:43;4.68;;;3.47;;
65971;SDS011;52726;48.852;9.152;2023-04-25T09:45:08;4.63;;;3.55;;
65971;SDS011;52726;48.852;9.152;2023-04-25T09:47:38;4.85;;;3.35;;
65971;SDS011;52726;48.852;9.152;2023-04-25T09:50:04;4.90;;;3.60;;
65971;SDS011;52726;48.852;9.152;2023-04-25T09:52:40;5.45;;;3.15;;
65971;SDS011;52726;48.852;9.152;2023-04-25T09:55:05;6.30;;;3.03;;
65971;SDS011;52726;48.852;9.152;2023-04-25T09:57:31;4.22;;;3.00;;
65971;SDS011;52726;48.852;9.152;2023-04-25T09:59:56;3.58;;;2.97;;
65971;SDS011;52726;48.852;9.152;2023-04-25T10:02:25;3.83;;;2.90;;
65971;SDS011;52726;48.852;9.152;2023-04-25T10:04:52;3.10;;;2.40;;
65971;SDS011;52726;48.852;9.152;2023-04-25T10:07:20;3.72;;;2.33;;
65971;SDS011;52726;48.852;9.152;2023-04-25T10:09:50;2.90;;;2.22;;
65971;SDS011;52726;48.852;9.152;2023-04-25T10:12:28;2.72;;;2.13;;
65971;SDS011;52726;48.852;9.152;2023-04-25T10:14:54;4.75;;;2.13;;
65971;SDS011;52726;48.852;9.152;2023-04-25T10:17:20;3.88;;;2.50;;
65971;SDS011;52726;48.852;9.152;2023-04-25T10:19:46;4.65;;;2.30;;
65971;SDS011;52726;48.852;9.152;2023-04-25T10:24:58;2.55;;;2.00;;
65971;SDS011;52726;48.852;9.152;2023-04-25T10:27:27;2.78;;;2.22;;
65971;SDS011;52726;48.852;9.152;2023-04-25T10:30:13;2.90;;;2.40;;
65971;SDS011;52726;48.852;9.152;2023-04-25T10:32:41;4.53;;;3.10;;
65971;SDS011;52726;48.852;9.152;2023-04-25T10:35:13;9.45;;;3.47;;
65971;SDS011;52726;48.852;9.152;2023-04-25T10:40:29;7.15;;;3.10;;
65971;SDS011;52726;48.852;9.152;2023-04-25T10:42:55;4.05;;;2.20;;
65971;SDS011;52726;48.852;9.152;2023-04-25T10:45:21;4.20;;;2.72;;
65971;SDS011;52726;48.852;9.152;2023-04-25T10:47:47;3.50;;;2.80;;
65971;SDS011;52726;48.852;9.152;2023-04-25T10:53:15;5.00;;;2.80;;
65971;SDS011;52726;48.852;9.152;2023-04-25T10:56:45;3.17;;;2.58;;
65971;SDS011;52726;48.852;9.152;2023-04-25T10:59:14;3.92;;;2.90;;
65971;SDS011;52726;48.852;9.152;2023-04-25T11:01:48;2.80;;;2.40;;
65971;SDS011;52726;48.852;9.152;2023-04-25T11:04:20;3.00;;;2.65;;
65971;SDS011;52726;48.852;9.152;2023-04-25T11:07:00;3.63;;;2.65;;
65971;SDS011;52726;48.852;9.152;2023-04-25T11:09:27;2.60;;;2.33;;
65971;SDS011;52726;48.852;9.152;2023-04-25T11:11:57;3.35;;;2.70;;
65971;SDS011;52726;48.852;9.152;2023-04-25T11:14:27;2.92;;;2.42;;
65971;SDS011;52726;48.852;9.152;2023-04-25T11:16:53;6.07;;;4.50;;
65971;SDS011;52726;48.852;9.152;2023-04-25T11:19:20;6.50;;;4.63;;
65971;SDS011;52726;48.852;9.152;2023-04-25T11:21:46;6.10;;;5.28;;
65971;SDS011;52726;48.852;9.152;2023-04-25T11:24:11;5.47;;;3.80;;
65971;SDS011;52726;48.852;9.152;2023-04-25T11:26:37;7.43;;;6.03;;
65971;SDS011;52726;48.852;9.152;2023-04-25T11:29:02;8.98;;;6.32;;
65971;SDS011;52726;48.852;9.152;2023-04-25T11:31:28;12.05;;;7.65;;
65971;SDS011;52726;48.852;9.152;2023-04-25T11:33:54;4.43;;;3.58;;
65971;SDS011;52726;48.852;9.152;2023-04-25T11:36:22;7.18;;;4.25;;
65971;SDS011;52726;48.852;9.152;2023-04-25T11:38:49;3.97;;;2.88;;
65971;SDS011;52726;48.852;9.152;2023-04-25T11:41:15;6.95;;;5.75;;
65971;SDS011;52726;48.852;9.152;2023-04-25T11:43:42;4.90;;;3.90;;
65971;SDS011;52726;48.852;9.152;2023-04-25T11:46:08;4.18;;;3.20;;
65971;SDS011;52726;48.852;9.152;2023-04-25T11:48:40;5.07;;;2.92;;
65971;SDS011;52726;48.852;9.152;2023-04-25T11:51:06;2.42;;;2.22;;
65971;SDS011;52726;48.852;9.152;2023-04-25T11:53:32;4.05;;;2.13;;
65971;SDS011;52726;48.852;9.152;2023-04-25T11:55:57;2.45;;;2.25;;
65971;SDS011;52726;48.852;9.152;2023-04-25T11:58:23;2.72;;;2.15;;
65971;SDS011;52726;48.852;9.152;2023-04-25T12:00:48;5.95;;;2.67;;
65971;SDS011;52726;48.852;9.152;2023-04-25T12:03:13;3.03;;;2.38;;
65971;SDS011;52726;48.852;9.152;2023-04-25T12:05:39;3.67;;;2.53;;
65971;SDS011;52726;48.852;9.152;2023-04-25T12:08:11;4.68;;;2.92;;
65971;SDS011;52726;48.852;9.152;2023-04-25T12:10:38;4.10;;;2.90;;
65971;SDS011;52726;48.852;9.152;2023-04-25T12:13:18;3.75;;;2.75;;
65971;SDS011;52726;48.852;9.152;2023-04-25T12:15:45;4.25;;;2.38;;
65971;SDS011;52726;48.852;9.152;2023-04-25T12:18:10;4.05;;;2.70;;
65971;SDS011;52726;48.852;9.152;2023-04-25T12:20:36;7.75;;;3.30;;
65971;SDS011;52726;48.852;9.152;2023-04-25T12:23:01;4.90;;;3.05;;
65971;SDS011;52726;48.852;9.152;2023-04-25T12:28:11;8.20;;;3.80;;
65971;SDS011;52726;48.852;9.152;2023-04-25T12:33:29;5.85;;;4.38;;
65971;SDS011;52726;48.852;9.152;2023-04-25T12:35:56;7.88;;;4.63;;
65971;SDS011;52726;48.852;9.152;2023-04-25T12:38:27;7.93;;;4.05;;
65971;SDS011;52726;48.852;9.152;2023-04-25T12:40:58;9.38;;;4.50;;
65971;SDS011;52726;48.852;9.152;2023-04-25T12:43:24;6.78;;;4.18;;
65971;SDS011;52726;48.852;9.152;2023-04-25T12:45:50;6.43;;;3.60;;
65971;SDS011;52726;48.852;9.152;2023-04-25T12:48:16;5.93;;;4.50;;
65971;SDS011;52726;48.852;9.152;2023-04-25T12:50:42;9.90;;;5.22;;
65971;SDS011;52726;48.852;9.152;2023-04-25T12:53:08;7.05;;;4.05;;
65971;SDS011;52726;48.852;9.152;2023-04-25T12:55:34;6.43;;;3.90;;
65971;SDS011;52726;48.852;9.152;2023-04-25T12:57:59;12.40;;;5.07;;
65971;SDS011;52726;48.852;9.152;2023-04-25T13:00:24;5.45;;;3.88;;
65971;SDS011;52726;48.852;9.152;2023-04-25T13:02:51;6.53;;;3.78;;
65971;SDS011;52726;48.852;9.152;2023-04-25T13:05:16;6.32;;;3.70;;
65971;SDS011;52726;48.852;9.152;2023-04-25T13:07:42;8.52;;;3.40;;
65971;SDS011;52726;48.852;9.152;2023-04-25T13:10:07;6.32;;;3.42;;
65971;SDS011;52726;48.852;9.152;2023-04-25T13:12:33;5.00;;;3.75;;
65971;SDS011;52726;48.852;9.152;2023-04-25T13:14:58;5.20;;;3.85;;
65971;SDS011;52726;48.852;9.152;2023-04-25T13:17:23;10.25;;;4.18;;
65971;SDS011;52726;48.852;9.152;2023-04-25T13:19:49;5.88;;;3.95;;
65971;SDS011;52726;48.852;9.152;2023-04-25T13:22:14;9.13;;;4.28;;
65971;SDS011;52726;48.852;9.152;2023-04-25T13:24:41;8.25;;;4.20;;
65971;SDS011;52726;48.852;9.152;2023-04-25T13:27:07;10.57;;;5.60;;
65971;SDS011;52726;48.852;9.152;2023-04-25T13:29:32;6.93;;;4.72;;
65971;SDS011;52726;48.852;9.152;2023-04-25T13:32:00;7.60;;;4.97;;
65971;SDS011;52726;48.852;9.152;2023-04-25T13:34:26;7.85;;;4.80;;
65971;SDS011;52726;48.852;9.152;2023-04-25T13:36:51;10.32;;;5.95;;
65971;SDS011;52726;48.852;9.152;2023-04-25T13:39:16;10.90;;;5.95;;
65971;SDS011;52726;48.852;9.152;2023-04-25T13:41:42;10.57;;;5.80;;
65971;SDS011;52726;48.852;9.152;2023-04-25T13:44:07;9.18;;;5.00;;
65971;SDS011;52726;48.852;9.152;2023-04-25T13:46:32;7.70;;;5.18;;
65971;SDS011;52726;48.852;9.152;2023-04-25T13:48:58;15.02;;;6.20;;
65971;SDS011;52726;48.852;9.152;2023-04-25T13:51:23;8.32;;;4.75;;
65971;SDS011;52726;48.852;9.152;2023-04-25T13:53:48;11.63;;;5.18;;
65971;SDS011;52726;48.852;9.152;2023-04-25T13:56:14;6.88;;;4.82;;
65971;SDS011;52726;48.852;9.152;2023-04-25T13:58:39;8.73;;;5.80;;
65971;SDS011;52726;48.852;9.152;2023-04-25T14:01:05;11.00;;;5.45;;
65971;SDS011;52726;48.852;9.152;2023-04-25T14:06:52;9.93;;;4.30;;
65971;SDS011;52726;48.852;9.152;2023-04-25T14:09:18;7.65;;;4.82;;
65971;SDS011;52726;48.852;9.152;2023-04-25T14:11:45;7.85;;;4.85;;
65971;SDS011;52726;48.852;9.152;2023-04-25T14:14:10;8.18;;;4.65;;
65971;SDS011;52726;48.852;9.152;2023-04-25T14:16:37;7.88;;;4.85;;
65971;SDS011;52726;48.852;9.152;2023-04-25T14:19:03;10.70;;;4.40;;
65971;SDS011;52726;48.852;9.152;2023-04-25T14:21:28;6.18;;;4.28;;
65971;SDS011;52726;48.852;9.152;2023-04-25T14:23:54;6.60;;;4.15;;
65971;SDS011;52726;48.852;9.152;2023-04-25T14:26:19;9.32;;;4.05;;
65971;SDS011;52726;48.852;9.152;2023-04-25T14:28:45;5.38;;;3.58;;
65971;SDS011;52726;48.852;9.152;2023-04-25T14:31:10;7.28;;;4.63;;
65971;SDS011;52726;48.852;9.152;2023-04-25T14:33:36;6.18;;;3.72;;
65971;SDS011;52726;48.852;9.152;2023-04-25T14:36:04;5.07;;;3.95;;
65971;SDS011;52726;48.852;9.152;2023-04-25T14:38:30;7.15;;;3.67;;
65971;SDS011;52726;48.852;9.152;2023-04-25T14:40:55;7.28;;;3.90;;
65971;SDS011;52726;48.852;9.152;2023-04-25T14:43:20;7.63;;;4.03;;
65971;SDS011;52726;48.852;9.152;2023-04-25T14:45:46;5.75;;;3.33;;
65971;SDS011;52726;48.852;9.152;2023-04-25T14:48:11;6.50;;;4.20;;
65971;SDS011;52726;48.852;9.152;2023-04-25T14:50:36;10.70;;;4.47;;
65971;SDS011;52726;48.852;9.152;2023-04-25T14:53:02;6.18;;;3.90;;
65971;SDS011;52726;48.852;9.152;2023-04-25T14:55:27;8.02;;;4.22;;
65971;SDS011;52726;48.852;9.152;2023-04-25T14:57:53;5.18;;;3.80;;
65971;SDS011;52726;48.852;9.152;2023-04-25T15:00:19;8.70;;;4.00;;
65971;SDS011;52726;48.852;9.152;2023-04-25T15:02:45;6.45;;;3.83;;